首页
METAR-TAF:

METAR-TAF

机场 :

红鹿, 艾伯塔, 加拿大

纬度: 52-11N, 经度: 113-54W, 海拔: 905米

当前天气观测

该预报发布于43分钟前的23:00 UTC
风速15节,风向西北,有时为25节阵风
温度 3°C
湿度 35%
气压 1012 hPa
能見度: 24.1公里
多云层高于7000英尺
低吹雪

METAR: CYQF 072300Z 32015G25KT 15SM DRSN BKN070 03/M11 A2987 RMK AC6 SLP155

时间: 17:43 (23:43 UTC)

预报

该预报发布于2小时和27分钟前的21:16 UTC
预报有效从07日的 21点(UTC)到 08日的 06点(UTC)
风速25节,风向西北,有时为35节阵风
能見度: 10公里
散云层高于8000英尺
短暂存在
从 07日的 21点(UTC)到 08日的 06点(UTC)
多云层高于7000英尺
成为
从 08日的 00点(UTC)到 08日的 02点(UTC)
风速12节,风向西北

TAF: CYQF 072116Z 0721/0806 31025G35KT P6SM SCT080 TEMPO 0721/0806 BKN070 BECMG 0800/0802 32012KT RMK NXT FCST BY 080000Z

超过4000个机场的气象观测和天气预报(METAR&TAF报告)。

可查询的气象台以黄色和红色小点在地图上表示。

将鼠标移到小点上方,可查看气象台名称。

然后点击查看天气观测和预报。

如需切换地图:点击带黑十字的绿色按钮放大地图;点击带横线的绿色按钮缩小地图;或者点击绿色箭头查看邻近地区的地图。


METAR-TAF: